Accueil
METAR-TAF:

METAR-TAF

Aéroports :

Tinker Air Force Base

Oklahoma City / Tinker, Oklahoma, États-Unis

latitude: 35-25N, longitude: 097-23W, altitude: 394 m

Observation

Le bulletin a été fait il y a 1 heure et 1 minutes, à 00:56 UTC
Vent 3 kt de est
Température 6°C
Humidité 42%
Pression 1026 hPa
Visibilité: 16.1 km
Ciel clair

METAR: KTIK 110056Z AUTO 08003KT 10SM CLR 06/M06 A3029 RMK AO2 SLP273 T00561063

Heure: 19:57 (01:57 UTC)

Prévision

Le bulletin a été fait il y a 7 heures et 57 minutes, à 18:00 UTC
Prévision valable du 10 à 18 UTC au 11 à 24 UTC
Vent 6 kt de direction variable
Visibilité 10 km ou plus
Ciel clair
Evoluant progressivement
du 11 à 17 UTC au 11 à 18 UTC
Vent 10 kt de sud avec des rafales jusqu'à 15 kt
Visibilité 10 km ou plus
Quelques nuages à une hauteur de 20000 ft

TAF: KTIK 101800Z 1018/1124 VRB06KT 9999 SKC QNH3031INS BECMG 1117/1118 19010G15KT 9999 FEW200 QNH3021INS TX08/1021Z TN00/1110Z

Observations et prévisions météorologiques de plus de 4000 aéroports (messages METAR et TAF).

Les stations disponibles sont représentées par des disques jaunes et rouges sur la carte.

Passer la souris dessus pour voir le nom de la station.

Cliquer dessus pour voir les observations et prévisions météorologiques.

Pour changer de carte: cliquez sur les boutons verts avec une croix noire pour zoomer, sur le bouton vert avec un tiret pour effectuer un zoom arrière, ou sur les flèches vertes pour les cartes adjacentes.


METAR-TAF: